Time;durP1;ratioP1;P1;durP2;ratioP2;P2;SDS_P1;SDS_P2;PMS_P1;PMS_P2;Temp;Humidity;BMP_temperature;BMP_pressure;BME280_temperature;BME280_humidity;BME280_pressure;Samples;Min_cycle;Max_cycle;Signal;HPM_P1;HPM_P2
2021/08/31 00:01:49;;;;;;;13.55;10.75;;;28.90;99.90;;;;;;4231137;27;20501;-62
2021/08/31 00:03:54;;;;;;;14.55;10.43;;;28.80;99.90;;;;;;4215087;28;20117;-61
2021/08/31 00:05:59;;;;;;;12.27;9.80;;;28.90;99.90;;;;;;4214759;28;20036;-62
2021/08/31 00:08:03;;;;;;;14.35;10.63;;;28.90;99.90;;;;;;4216804;28;20363;-61
2021/08/31 00:10:08;;;;;;;14.98;9.82;;;28.90;99.90;;;;;;4215570;28;20113;-62
2021/08/31 00:12:13;;;;;;;12.20;8.82;;;28.90;99.90;;;;;;4212941;28;20046;-61
2021/08/31 00:14:17;;;;;;;11.52;9.10;;;28.90;99.90;;;;;;4208981;28;20426;-61
2021/08/31 00:16:22;;;;;;;14.60;8.30;;;29.00;99.90;;;;;;4209929;28;20058;-61
2021/08/31 00:18:26;;;;;;;12.38;8.77;;;29.00;99.90;;;;;;4210122;28;20343;-61
2021/08/31 00:20:30;;;;;;;11.32;7.43;;;29.00;99.90;;;;;;4208787;28;20060;-61
2021/08/31 00:22:35;;;;;;;9.18;7.25;;;29.00;99.90;;;;;;4209769;28;20047;-61
2021/08/31 00:24:42;;;;;;;9.52;7.22;;;29.10;99.90;;;;;;4209239;28;20127;-61
2021/08/31 00:26:46;;;;;;;10.63;7.15;;;29.20;99.90;;;;;;4209253;28;20858;-62
2021/08/31 00:28:50;;;;;;;9.52;6.40;;;29.20;99.90;;;;;;4209795;28;20441;-61
2021/08/31 00:30:55;;;;;;;12.98;6.43;;;29.20;99.90;;;;;;4209520;28;20497;-62
2021/08/31 00:32:59;;;;;;;10.30;5.13;;;29.20;99.90;;;;;;4204570;28;20101;-61
2021/08/31 00:35:05;;;;;;;11.23;5.68;;;29.20;99.90;;;;;;4202981;28;20395;-61
2021/08/31 00:37:12;;;;;;;8.90;4.78;;;29.20;99.90;;;;;;4210631;28;20452;-61
2021/08/31 00:39:17;;;;;;;5.82;4.40;;;29.10;99.90;;;;;;4210304;28;20056;-61
2021/08/31 00:41:21;;;;;;;5.35;4.25;;;29.00;99.90;;;;;;4210795;28;20113;-62
2021/08/31 00:43:28;;;;;;;7.05;4.65;;;29.00;99.90;;;;;;4210631;28;20505;-62
2021/08/31 00:45:34;;;;;;;6.70;4.25;;;29.00;99.90;;;;;;4213443;28;20454;-61
2021/08/31 00:47:45;;;;;;;5.80;3.72;;;29.10;99.90;;;;;;4210771;28;20055;-61
2021/08/31 00:49:52;;;;;;;8.75;3.95;;;29.20;99.90;;;;;;4229499;28;20045;-61
2021/08/31 00:51:57;;;;;;;5.47;3.88;;;29.20;99.90;;;;;;4224775;28;20036;-61
2021/08/31 00:54:02;;;;;;;8.75;3.95;;;29.30;99.90;;;;;;4212094;28;20059;-61
2021/08/31 00:56:10;;;;;;;4.90;3.50;;;29.40;99.90;;;;;;4202452;28;20050;-61
2021/08/31 00:58:15;;;;;;;5.32;3.60;;;29.40;99.90;;;;;;4213156;28;20048;-61
2021/08/31 01:00:21;;;;;;;5.57;2.97;;;29.40;99.90;;;;;;4211392;28;20123;-62
2021/08/31 01:02:27;;;;;;;5.78;3.03;;;29.50;99.90;;;;;;4222127;28;20055;-61
2021/08/31 01:04:31;;;;;;;5.40;3.25;;;29.40;99.90;;;;;;4230310;28;20039;-61
2021/08/31 01:06:36;;;;;;;7.57;3.05;;;29.50;99.90;;;;;;4232609;27;20046;-62
2021/08/31 01:08:43;;;;;;;5.43;2.95;;;29.60;99.90;;;;;;4229755;27;20437;-62
2021/08/31 01:10:47;;;;;;;8.85;4.13;;;29.50;99.90;;;;;;4222260;28;20122;-62
2021/08/31 01:12:54;;;;;;;6.32;4.03;;;29.60;99.90;;;;;;4230178;27;20031;-61
2021/08/31 01:14:59;;;;;;;7.28;4.47;;;29.40;99.90;;;;;;4214917;28;20497;-62
2021/08/31 01:17:03;;;;;;;9.55;4.50;;;29.50;99.90;;;;;;4223327;28;20126;-62
2021/08/31 01:19:08;;;;;;;9.13;3.97;;;29.50;99.90;;;;;;4229214;28;20071;-62
2021/08/31 01:21:12;;;;;;;5.90;4.15;;;29.50;99.90;;;;;;4228436;28;20052;-62
2021/08/31 01:23:17;;;;;;;8.98;4.68;;;29.60;99.90;;;;;;4228895;28;20051;-62
2021/08/31 01:25:22;;;;;;;8.80;4.68;;;29.60;99.90;;;;;;4228667;28;20275;-62
2021/08/31 01:27:27;;;;;;;11.07;5.35;;;29.60;99.90;;;;;;4229128;28;20040;-62
2021/08/31 01:29:32;;;;;;;8.02;4.95;;;29.60;99.90;;;;;;4228972;28;20134;-62
2021/08/31 01:31:36;;;;;;;7.20;5.05;;;29.50;99.90;;;;;;4227123;28;20125;-62
2021/08/31 01:33:41;;;;;;;8.73;5.13;;;29.70;99.90;;;;;;4228512;28;20050;-62
2021/08/31 01:35:46;;;;;;;7.13;4.70;;;29.80;99.90;;;;;;4228309;28;20044;-62
2021/08/31 01:37:50;;;;;;;6.95;4.90;;;29.90;99.90;;;;;;4228699;28;20043;-62
2021/08/31 01:39:55;;;;;;;7.97;4.47;;;29.80;99.90;;;;;;4227778;28;20050;-62
2021/08/31 01:42:19;;;;;;;5.07;4.00;;;30.00;99.90;;;;;;4226671;28;20055;-62
2021/08/31 01:44:26;;;;;;;7.90;4.30;;;30.10;99.90;;;;;;4227840;28;20065;-62
2021/08/31 01:46:31;;;;;;;5.78;4.30;;;30.30;99.90;;;;;;4228372;28;20481;-62
2021/08/31 01:48:35;;;;;;;6.47;4.25;;;30.30;99.90;;;;;;4228190;28;20051;-62
2021/08/31 01:50:41;;;;;;;7.60;4.13;;;30.40;99.90;;;;;;4232146;27;20397;-62
2021/08/31 01:52:46;;;;;;;5.32;4.30;;;30.40;99.90;;;;;;4226718;28;20035;-62
2021/08/31 01:54:50;;;;;;;7.80;4.10;;;30.50;99.90;;;;;;4226950;28;20312;-62
2021/08/31 01:56:55;;;;;;;6.38;4.05;;;30.40;99.90;;;;;;4226873;28;20056;-63
2021/08/31 01:59:01;;;;;;;5.85;3.72;;;30.50;99.90;;;;;;4228038;28;20055;-61
2021/08/31 02:01:09;;;;;;;4.85;4.00;;;30.50;99.90;;;;;;4227740;28;20044;-63
2021/08/31 02:03:13;;;;;;;6.10;4.00;;;30.60;99.90;;;;;;4228471;28;20411;-62
2021/08/31 02:05:18;;;;;;;4.88;3.78;;;30.60;99.90;;;;;;4228242;28;20070;-62
2021/08/31 02:07:23;;;;;;;5.13;3.58;;;30.60;99.90;;;;;;4228248;28;20050;-61
2021/08/31 02:09:27;;;;;;;4.40;3.20;;;30.70;99.90;;;;;;4228182;28;20044;-62
2021/08/31 02:11:32;;;;;;;4.93;3.60;;;30.70;99.90;;;;;;4228171;28;20462;-62
2021/08/31 02:13:36;;;;;;;6.43;4.00;;;30.70;99.90;;;;;;4225312;28;20081;-62
2021/08/31 02:15:41;;;;;;;5.07;3.42;;;30.80;99.90;;;;;;4226839;28;20040;-63
2021/08/31 02:17:46;;;;;;;6.18;3.63;;;30.70;99.90;;;;;;4228017;28;20047;-63
2021/08/31 02:19:51;;;;;;;6.05;4.25;;;30.80;99.90;;;;;;4227522;28;20044;-63
2021/08/31 02:21:56;;;;;;;4.07;3.22;;;30.70;99.90;;;;;;4225658;28;20043;-63
2021/08/31 02:24:01;;;;;;;6.28;3.72;;;30.80;99.90;;;;;;4223389;28;20078;-64
2021/08/31 02:26:05;;;;;;;5.15;3.63;;;30.80;99.90;;;;;;4227062;28;20478;-62
2021/08/31 02:28:09;;;;;;;5.05;3.72;;;30.90;99.90;;;;;;4228134;28;20051;-63
2021/08/31 02:30:14;;;;;;;4.65;3.65;;;31.00;99.90;;;;;;4226024;28;20500;-63
2021/08/31 02:32:19;;;;;;;4.88;3.95;;;31.10;99.90;;;;;;4228335;28;20035;-63
2021/08/31 02:34:24;;;;;;;15.90;4.68;;;31.10;99.90;;;;;;4227907;28;20162;-62
2021/08/31 02:36:28;;;;;;;60.83;9.82;;;31.30;99.90;;;;;;4227873;28;20039;-62
2021/08/31 02:38:33;;;;;;;91.75;10.75;;;31.20;99.90;;;;;;4227153;28;20074;-63
2021/08/31 02:40:37;;;;;;;44.85;6.43;;;31.20;99.90;;;;;;4225465;28;20074;-62
2021/08/31 02:42:41;;;;;;;7.78;4.20;;;31.30;99.90;;;;;;4227648;28;20135;-62
2021/08/31 02:44:46;;;;;;;5.60;3.95;;;31.30;99.90;;;;;;4227705;28;20097;-62
2021/08/31 02:46:53;;;;;;;6.57;3.58;;;31.20;99.90;;;;;;4227794;28;20078;-64
2021/08/31 02:48:57;;;;;;;5.97;3.50;;;31.30;99.90;;;;;;4225115;27;20062;-63
2021/08/31 02:51:02;;;;;;;4.97;3.90;;;31.50;99.90;;;;;;4230553;27;20116;-64
2021/08/31 02:53:06;;;;;;;5.88;3.80;;;31.40;99.90;;;;;;4209898;28;20036;-63
2021/08/31 02:55:11;;;;;;;7.88;3.75;;;31.40;99.90;;;;;;4228644;27;20051;-62
2021/08/31 02:57:16;;;;;;;8.52;4.13;;;31.40;99.90;;;;;;4228126;27;20657;-65
2021/08/31 02:59:21;;;;;;;4.32;3.67;;;31.60;99.90;;;;;;4227417;28;20044;-64
2021/08/31 03:03:37;;;;;;;4.82;3.60;;;31.70;99.90;;;;;;4230371;27;20563;-65
2021/08/31 03:05:41;;;;;;;64.57;7.85;;;31.80;99.90;;;;;;4231944;27;20028;-65
2021/08/31 03:07:46;;;;;;;36.15;5.65;;;31.80;99.90;;;;;;4229463;27;20081;-66
2021/08/31 03:09:50;;;;;;;12.45;3.92;;;31.80;99.90;;;;;;4235290;27;20066;-64
2021/08/31 03:11:54;;;;;;;7.45;3.58;;;31.70;99.90;;;;;;4230289;27;20047;-65
2021/08/31 03:13:59;;;;;;;5.15;3.42;;;31.60;99.90;;;;;;4233089;27;20043;-64
2021/08/31 03:16:03;;;;;;;7.15;3.45;;;31.60;99.90;;;;;;4232696;27;20489;-64
2021/08/31 03:18:08;;;;;;;5.72;3.40;;;31.70;99.90;;;;;;4231767;27;20047;-67
2021/08/31 03:20:13;;;;;;;3.88;3.30;;;31.80;99.90;;;;;;4234894;27;20039;-64
2021/08/31 03:22:17;;;;;;;5.68;3.30;;;31.80;99.90;;;;;;4213870;28;20051;-64
2021/08/31 03:24:22;;;;;;;3.38;2.92;;;31.80;99.90;;;;;;4227876;28;20071;-64
2021/08/31 03:26:26;;;;;;;5.18;3.97;;;31.90;99.90;;;;;;4215613;28;20036;-64
2021/08/31 03:28:31;;;;;;;4.93;3.72;;;31.90;99.90;;;;;;4227249;28;20489;-64
2021/08/31 03:30:36;;;;;;;4.55;3.47;;;31.70;99.90;;;;;;4226584;28;20043;-64
2021/08/31 03:32:42;;;;;;;6.20;3.75;;;31.90;99.90;;;;;;4225936;28;20047;-64
2021/08/31 03:34:46;;;;;;;4.93;3.60;;;31.90;99.90;;;;;;4225354;28;20058;-63
2021/08/31 03:36:51;;;;;;;4.45;3.10;;;31.90;99.90;;;;;;4225461;28;20386;-64
2021/08/31 03:38:55;;;;;;;4.35;3.10;;;31.90;99.90;;;;;;4227203;28;20126;-63
2021/08/31 03:41:00;;;;;;;5.63;3.53;;;31.80;99.90;;;;;;4217253;28;20048;-62
2021/08/31 03:43:04;;;;;;;5.10;3.47;;;31.90;99.90;;;;;;4226637;28;20039;-62
2021/08/31 03:45:09;;;;;;;4.15;3.33;;;31.90;99.90;;;;;;4226975;28;20054;-62
2021/08/31 03:47:14;;;;;;;3.83;3.40;;;32.10;99.90;;;;;;4227292;28;20040;-63
2021/08/31 03:49:18;;;;;;;4.72;3.35;;;32.20;99.90;;;;;;4227484;28;20375;-63
2021/08/31 03:51:23;;;;;;;5.95;4.55;;;32.20;99.90;;;;;;4224320;28;20050;-64
2021/08/31 03:53:27;;;;;;;5.53;3.42;;;32.00;99.90;;;;;;4226678;28;20063;-64
2021/08/31 03:55:32;;;;;;;5.03;3.88;;;31.80;99.90;;;;;;4226634;28;20092;-63
2021/08/31 03:57:36;;;;;;;6.68;3.75;;;31.50;99.90;;;;;;4225160;28;20031;-63
2021/08/31 03:59:41;;;;;;;5.78;4.15;;;31.40;99.90;;;;;;4223729;28;20142;-63
2021/08/31 04:01:45;;;;;;;6.20;4.78;;;31.40;99.90;;;;;;4226730;28;20502;-62
2021/08/31 04:03:50;;;;;;;4.15;3.30;;;31.50;99.90;;;;;;4226114;28;20482;-62
2021/08/31 04:05:54;;;;;;;5.32;3.83;;;31.50;99.90;;;;;;4226045;28;20561;-63
2021/08/31 04:07:58;;;;;;;4.28;3.25;;;31.50;99.90;;;;;;4229362;28;20118;-63
2021/08/31 04:10:03;;;;;;;3.92;3.08;;;31.50;99.90;;;;;;4231992;28;20043;-63
2021/08/31 04:12:07;;;;;;;3.85;3.28;;;31.50;99.90;;;;;;4231702;28;20443;-63
2021/08/31 04:14:12;;;;;;;3.90;2.75;;;31.60;99.30;;;;;;4231579;28;20039;-63
2021/08/31 04:16:16;;;;;;;4.13;3.00;;;31.50;99.50;;;;;;4228752;28;20221;-62
2021/08/31 04:18:21;;;;;;;3.05;2.70;;;31.70;98.80;;;;;;4229335;28;20050;-62
2021/08/31 04:20:25;;;;;;;3.38;2.85;;;31.70;98.10;;;;;;4230378;28;20569;-63
2021/08/31 04:22:29;;;;;;;4.63;2.35;;;31.80;98.70;;;;;;4228506;28;20047;-63
2021/08/31 04:24:34;;;;;;;3.55;2.70;;;31.80;98.60;;;;;;4228214;28;20089;-66
2021/08/31 04:26:39;;;;;;;4.43;3.10;;;32.00;98.80;;;;;;4227865;28;20428;-63
2021/08/31 04:28:43;;;;;;;2.88;2.58;;;32.10;98.80;;;;;;4224008;28;20464;-65
2021/08/31 04:30:48;;;;;;;2.60;2.20;;;32.30;98.90;;;;;;4227920;28;20554;-65
2021/08/31 04:32:52;;;;;;;3.20;2.47;;;32.30;97.50;;;;;;4225134;28;20079;-63
2021/08/31 04:35:02;;;;;;;4.57;2.70;;;32.20;97.00;;;;;;4228342;28;20432;-64
2021/08/31 04:37:06;;;;;;;3.20;2.45;;;32.10;97.10;;;;;;4228120;28;20582;-65
2021/08/31 04:39:11;;;;;;;2.85;2.10;;;32.10;96.70;;;;;;4227734;28;20081;-64
2021/08/31 04:41:16;;;;;;;4.22;1.95;;;32.30;96.70;;;;;;4227834;28;20090;-63
2021/08/31 04:43:22;;;;;;;2.95;2.30;;;32.50;96.50;;;;;;4224915;28;20126;-63
2021/08/31 04:45:26;;;;;;;3.97;2.83;;;32.70;97.00;;;;;;4227178;28;20100;-62
2021/08/31 04:47:31;;;;;;;4.03;2.53;;;32.80;97.50;;;;;;4227596;28;20142;-64
2021/08/31 04:49:35;;;;;;;5.50;2.30;;;32.60;95.30;;;;;;4228337;28;20093;-64
2021/08/31 04:51:39;;;;;;;2.33;1.92;;;32.50;95.60;;;;;;4227238;28;20116;-64
2021/08/31 04:53:44;;;;;;;4.10;2.13;;;32.60;95.90;;;;;;4216458;28;20040;-64
2021/08/31 04:55:48;;;;;;;2.58;2.22;;;32.50;95.80;;;;;;4216995;28;20299;-64
2021/08/31 04:57:53;;;;;;;2.03;1.77;;;32.50;95.60;;;;;;4227873;28;20052;-63
2021/08/31 04:59:58;;;;;;;3.53;2.33;;;32.70;95.10;;;;;;4227702;28;20035;-64
2021/08/31 05:02:03;;;;;;;3.58;2.10;;;32.80;94.30;;;;;;4226881;28;20413;-63
2021/08/31 05:04:07;;;;;;;3.53;2.40;;;32.80;95.60;;;;;;4227096;28;20521;-64
2021/08/31 05:06:12;;;;;;;3.85;2.15;;;32.90;93.80;;;;;;4226837;28;20532;-65
2021/08/31 05:08:16;;;;;;;2.92;1.88;;;33.00;94.60;;;;;;4226942;28;20093;-63
2021/08/31 05:10:21;;;;;;;3.13;1.63;;;32.80;92.70;;;;;;4226062;28;20127;-63
2021/08/31 05:12:25;;;;;;;3.13;1.75;;;32.90;93.00;;;;;;4231201;27;20425;-62
2021/08/31 05:14:30;;;;;;;3.63;1.90;;;33.00;93.20;;;;;;4226685;27;20050;-62
2021/08/31 05:16:34;;;;;;;3.20;2.40;;;33.00;93.20;;;;;;4225688;27;20044;-65
2021/08/31 05:18:39;;;;;;;2.90;2.05;;;33.10;92.70;;;;;;4227032;28;20413;-63
2021/08/31 05:20:43;;;;;;;2.83;1.85;;;33.20;92.60;;;;;;4226420;28;20044;-63
2021/08/31 05:22:47;;;;;;;3.67;2.20;;;33.20;92.60;;;;;;4227327;28;20096;-63
2021/08/31 05:24:54;;;;;;;2.97;2.10;;;33.20;92.50;;;;;;4227322;28;20073;-64
2021/08/31 05:26:58;;;;;;;2.20;1.50;;;33.20;91.20;;;;;;4226992;28;20043;-64
2021/08/31 05:29:02;;;;;;;1.92;1.75;;;33.30;91.70;;;;;;4226777;28;20553;-64
2021/08/31 05:31:07;;;;;;;2.58;1.80;;;33.30;91.00;;;;;;4215703;28;20040;-63
2021/08/31 05:33:12;;;;;;;3.75;1.50;;;33.50;91.10;;;;;;4226799;28;20039;-63
2021/08/31 05:35:16;;;;;;;3.20;1.70;;;33.40;90.40;;;;;;4225754;28;20048;-64
2021/08/31 05:37:20;;;;;;;2.25;1.77;;;33.40;90.40;;;;;;4229057;28;20040;-64
2021/08/31 05:39:32;;;;;;;1.60;1.50;;;33.40;90.40;;;;;;4229489;28;20146;-63
2021/08/31 05:41:37;;;;;;;2.13;1.60;;;33.40;91.40;;;;;;4217892;28;20316;-64
2021/08/31 05:43:41;;;;;;;4.43;1.73;;;33.50;91.50;;;;;;4229050;28;20105;-64
2021/08/31 05:45:45;;;;;;;2.65;1.83;;;33.50;90.90;;;;;;4228945;28;20088;-65
2021/08/31 05:47:49;;;;;;;2.42;1.70;;;33.60;90.70;;;;;;4229042;28;20079;-64
2021/08/31 05:49:54;;;;;;;1.65;1.40;;;33.60;91.10;;;;;;4226848;28;20521;-64
2021/08/31 05:51:59;;;;;;;1.45;1.23;;;33.60;90.80;;;;;;4228892;28;20039;-65
2021/08/31 05:54:04;;;;;;;3.38;1.60;;;33.50;91.50;;;;;;4228639;28;20038;-66
2021/08/31 05:56:09;;;;;;;2.08;1.70;;;33.60;91.70;;;;;;4224783;28;20051;-66
2021/08/31 05:58:14;;;;;;;2.83;1.65;;;33.70;91.40;;;;;;4228279;28;20059;-65
2021/08/31 06:00:19;;;;;;;2.50;1.40;;;33.80;91.60;;;;;;4229074;28;20050;-66
2021/08/31 06:02:24;;;;;;;2.30;1.70;;;33.80;91.60;;;;;;4228968;28;20087;-66
2021/08/31 06:04:28;;;;;;;1.70;1.50;;;33.80;91.30;;;;;;4229597;28;20044;-66
2021/08/31 06:06:32;;;;;;;3.55;1.80;;;33.80;90.70;;;;;;4228933;28;20051;-65
2021/08/31 06:08:37;;;;;;;2.80;1.60;;;33.70;91.00;;;;;;4228978;28;20510;-65
2021/08/31 06:10:42;;;;;;;2.35;1.45;;;33.50;91.30;;;;;;4228743;27;20490;-65
2021/08/31 06:12:46;;;;;;;2.35;1.50;;;33.50;91.60;;;;;;4228913;28;20445;-65
2021/08/31 06:14:50;;;;;;;2.38;1.60;;;33.50;91.50;;;;;;4227410;28;20338;-65
2021/08/31 06:16:55;;;;;;;2.38;1.90;;;33.50;91.80;;;;;;4228633;28;20089;-65
2021/08/31 06:19:00;;;;;;;9.75;6.70;;;33.70;91.50;;;;;;4228908;28;20079;-65
2021/08/31 06:21:05;;;;;;;9.07;5.57;;;33.60;92.60;;;;;;4228467;28;20134;-65
2021/08/31 06:23:09;;;;;;;6.18;3.75;;;33.60;93.20;;;;;;4228808;28;20432;-65
2021/08/31 06:25:14;;;;;;;5.50;3.63;;;33.50;93.30;;;;;;4228896;28;20157;-65
2021/08/31 06:27:18;;;;;;;4.20;3.17;;;33.50;93.40;;;;;;4220592;28;20405;-65
2021/08/31 06:29:23;;;;;;;5.45;2.90;;;33.60;93.80;;;;;;4222631;28;20048;-66
2021/08/31 06:31:27;;;;;;;5.65;2.95;;;33.50;94.20;;;;;;4228448;28;20046;-65
2021/08/31 06:33:32;;;;;;;3.17;2.60;;;33.60;94.10;;;;;;4228578;28;20280;-66
2021/08/31 06:35:36;;;;;;;3.85;2.58;;;33.60;93.80;;;;;;4228511;28;20443;-65
2021/08/31 06:37:41;;;;;;;5.70;2.50;;;33.60;93.50;;;;;;4228433;28;20505;-64
2021/08/31 06:39:45;;;;;;;4.05;2.53;;;33.60;93.60;;;;;;4228742;28;20146;-66
2021/08/31 06:41:50;;;;;;;3.92;2.40;;;33.60;93.50;;;;;;4227104;28;20050;-65
2021/08/31 06:43:54;;;;;;;4.40;2.35;;;33.70;93.50;;;;;;4228300;28;20509;-65
2021/08/31 06:45:59;;;;;;;3.08;2.00;;;33.90;93.20;;;;;;4228544;28;20043;-65
2021/08/31 06:48:04;;;;;;;4.70;2.15;;;34.00;92.70;;;;;;4211797;28;20123;-65
2021/08/31 06:50:13;;;;;;;4.15;2.28;;;34.20;92.30;;;;;;4228506;28;20568;-66
2021/08/31 06:52:18;;;;;;;4.47;2.22;;;34.30;91.30;;;;;;4228141;28;20054;-65
2021/08/31 06:54:22;;;;;;;2.72;2.05;;;34.30;90.90;;;;;;4227963;28;20044;-65
2021/08/31 06:56:27;;;;;;;2.70;1.73;;;34.40;91.00;;;;;;4228310;28;20043;-65
2021/08/31 06:58:32;;;;;;;2.10;1.80;;;34.20;89.00;;;;;;4228128;28;20562;-65
2021/08/31 07:00:36;;;;;;;2.25;1.90;;;34.20;90.60;;;;;;4227905;28;20048;-64
2021/08/31 07:02:40;;;;;;;2.33;1.60;;;34.30;90.10;;;;;;4220154;28;20142;-65
2021/08/31 07:04:45;;;;;;;3.00;2.03;;;34.40;89.60;;;;;;4225626;28;20055;-66
2021/08/31 07:06:50;;;;;;;2.47;1.80;;;34.50;89.40;;;;;;4225616;28;20043;-65
2021/08/31 07:08:54;;;;;;;3.03;1.77;;;34.40;88.80;;;;;;4215469;28;20052;-64
2021/08/31 07:10:59;;;;;;;3.10;1.83;;;34.30;88.70;;;;;;4225645;28;20043;-65
2021/08/31 07:13:04;;;;;;;2.40;1.70;;;34.20;89.90;;;;;;4225799;28;20494;-65
2021/08/31 07:15:09;;;;;;;3.28;1.85;;;34.30;89.60;;;;;;4224884;28;20049;-65
2021/08/31 07:17:13;;;;;;;2.80;1.63;;;34.50;89.20;;;;;;4221211;28;20118;-66
2021/08/31 07:19:18;;;;;;;3.88;1.92;;;34.50;89.00;;;;;;4225789;28;20117;-66
2021/08/31 07:21:23;;;;;;;1.90;1.63;;;34.70;89.60;;;;;;4225263;28;20294;-67
2021/08/31 07:23:27;;;;;;;2.78;1.52;;;34.60;86.70;;;;;;4224866;28;20079;-66
2021/08/31 07:25:31;;;;;;;2.00;1.50;;;34.50;87.40;;;;;;4222158;28;20040;-66
2021/08/31 07:27:36;;;;;;;3.50;1.63;;;34.50;87.50;;;;;;4225055;28;20059;-66
2021/08/31 07:29:41;;;;;;;2.58;1.40;;;34.50;85.50;;;;;;4224410;28;20401;-66
2021/08/31 07:31:45;;;;;;;2.22;1.67;;;34.40;85.50;;;;;;4216324;28;20071;-66
2021/08/31 07:33:52;;;;;;;3.00;1.80;;;34.30;86.50;;;;;;4224484;28;20035;-65
2021/08/31 07:35:57;;;;;;;2.25;1.75;;;34.20;86.10;;;;;;4223114;28;20091;-66
2021/08/31 07:38:02;;;;;;;1.92;1.45;;;34.30;86.20;;;;;;4224708;28;20131;-66
2021/08/31 07:40:07;;;;;;;2.47;1.88;;;34.20;86.30;;;;;;4224725;28;20096;-65
2021/08/31 07:42:12;;;;;;;2.30;1.90;;;33.90;87.40;;;;;;4220913;28;20108;-65
2021/08/31 07:44:16;;;;;;;2.85;2.17;;;33.90;88.70;;;;;;4223423;28;20139;-65
2021/08/31 07:46:21;;;;;;;2.42;1.73;;;33.80;89.00;;;;;;4224564;28;20097;-65
2021/08/31 07:48:26;;;;;;;2.67;1.80;;;33.50;89.90;;;;;;4225107;27;20043;-65
2021/08/31 07:50:30;;;;;;;3.53;2.08;;;33.50;90.60;;;;;;4223684;27;20047;-65
2021/08/31 07:52:35;;;;;;;3.05;1.90;;;33.30;91.90;;;;;;4224893;27;20047;-65
2021/08/31 07:54:40;;;;;;;3.03;1.58;;;33.10;92.80;;;;;;4225119;28;20036;-65
2021/08/31 07:56:44;;;;;;;3.40;1.85;;;32.90;93.60;;;;;;4224056;28;20047;-66
2021/08/31 07:58:49;;;;;;;2.45;1.65;;;32.90;94.00;;;;;;4223433;28;20051;-66
2021/08/31 08:00:53;;;;;;;3.22;2.10;;;32.70;94.10;;;;;;4225076;28;20055;-66
2021/08/31 08:02:58;;;;;;;4.40;1.73;;;32.70;94.50;;;;;;4199272;28;20056;-66
2021/08/31 08:05:05;;;;;;;3.33;1.40;;;32.50;94.10;;;;;;4189292;28;20056;-65
2021/08/31 08:07:10;;;;;;;5.03;1.80;;;32.10;94.80;;;;;;4190013;28;20143;-65
2021/08/31 08:09:15;;;;;;;7.28;2.30;;;31.60;96.40;;;;;;4188812;28;20435;-66
2021/08/31 08:11:19;;;;;;;12.07;3.38;;;30.80;99.60;;;;;;4189711;28;20048;-66
2021/08/31 08:13:24;;;;;;;5.40;1.52;;;29.00;99.90;;;;;;4188505;28;20049;-66
2021/08/31 08:15:28;;;;;;;1.85;1.00;;;27.30;99.90;;;;;;4187517;28;20043;-64
2021/08/31 08:17:32;;;;;;;6.40;2.38;;;27.00;99.90;;;;;;4188564;28;20055;-64
2021/08/31 08:19:37;;;;;;;3.15;2.25;;;26.70;99.90;;;;;;4186318;28;20044;-65
2021/08/31 08:21:41;;;;;;;6.38;2.83;;;26.70;99.90;;;;;;4188477;28;20040;-64
2021/08/31 08:23:46;;;;;;;5.03;2.53;;;26.90;99.90;;;;;;4188512;28;20045;-64
2021/08/31 08:25:50;;;;;;;5.47;2.38;;;27.10;99.90;;;;;;4188878;28;20441;-65
2021/08/31 08:27:55;;;;;;;6.38;3.13;;;26.80;99.90;;;;;;4187134;28;20049;-65
2021/08/31 08:30:00;;;;;;;8.95;2.83;;;27.20;99.90;;;;;;4188506;28;20082;-64
2021/08/31 08:32:10;;;;;;;5.20;2.90;;;27.80;99.90;;;;;;4189009;28;20036;-64
2021/08/31 08:34:15;;;;;;;5.35;2.90;;;27.70;99.90;;;;;;4187763;28;20048;-63
2021/08/31 08:36:19;;;;;;;12.82;3.45;;;27.90;99.90;;;;;;4189413;28;20056;-66
2021/08/31 08:38:24;;;;;;;4.10;2.42;;;28.30;99.90;;;;;;4188831;28;20091;-66
2021/08/31 08:40:30;;;;;;;5.05;2.58;;;28.70;99.90;;;;;;4189642;28;20053;-66
2021/08/31 08:42:36;;;;;;;6.70;2.50;;;28.90;99.90;;;;;;4181546;28;20059;-66
2021/08/31 08:44:41;;;;;;;4.28;2.35;;;29.00;99.90;;;;;;4189096;28;20127;-66
2021/08/31 08:46:47;;;;;;;5.80;2.42;;;29.10;99.90;;;;;;4186308;28;20094;-67
2021/08/31 08:48:51;;;;;;;6.22;2.78;;;29.30;99.90;;;;;;4188875;28;20539;-66
2021/08/31 08:50:57;;;;;;;4.25;2.00;;;29.40;99.90;;;;;;4189830;28;20068;-64
2021/08/31 08:53:03;;;;;;;4.63;1.80;;;29.60;99.90;;;;;;4191018;28;20052;-65
2021/08/31 08:55:11;;;;;;;5.60;2.47;;;29.60;99.90;;;;;;4188726;28;20051;-65
2021/08/31 08:57:19;;;;;;;7.90;2.75;;;29.40;99.90;;;;;;4191045;28;20126;-66
2021/08/31 08:59:24;;;;;;;4.68;2.45;;;29.40;99.90;;;;;;4190403;28;20414;-66
2021/08/31 09:01:42;;;;;;;5.35;2.60;;;29.20;99.90;;;;;;4191914;28;20143;-66
2021/08/31 09:03:53;;;;;;;4.22;2.40;;;29.30;99.90;;;;;;4224201;28;20083;-65
2021/08/31 09:06:14;;;;;;;4.60;2.38;;;29.30;99.90;;;;;;4225741;27;20070;-66
2021/08/31 09:08:22;;;;;;;4.10;2.30;;;29.50;99.90;;;;;;4230479;27;20059;-68
2021/08/31 09:10:26;;;;;;;5.13;2.17;;;29.70;99.90;;;;;;4216628;28;20138;-66
2021/08/31 09:12:34;;;;;;;7.78;2.20;;;29.90;99.90;;;;;;4230681;27;20043;-66
2021/08/31 09:14:40;;;;;;;6.45;2.30;;;30.00;99.90;;;;;;4232561;27;20081;-66
2021/08/31 09:16:46;;;;;;;3.30;1.80;;;30.00;99.90;;;;;;4233654;27;20474;-65
2021/08/31 09:18:53;;;;;;;2.78;1.73;;;29.90;99.90;;;;;;4230113;27;20071;-66
2021/08/31 09:21:02;;;;;;;4.35;1.55;;;29.80;99.90;;;;;;4229435;27;20059;-66
2021/08/31 09:23:09;;;;;;;3.22;1.50;;;29.80;99.90;;;;;;4230880;27;20363;-66
2021/08/31 09:25:13;;;;;;;3.03;1.70;;;29.80;99.90;;;;;;4230696;27;20046;-65
2021/08/31 09:27:34;;;;;;;3.50;1.75;;;29.70;99.90;;;;;;4229402;27;20155;-66
2021/08/31 09:29:39;;;;;;;2.60;1.50;;;29.70;99.90;;;;;;4217646;28;20049;-66
2021/08/31 09:31:48;;;;;;;3.70;1.45;;;29.60;99.90;;;;;;4225312;27;20036;-66
2021/08/31 09:33:56;;;;;;;2.53;1.35;;;29.60;99.90;;;;;;4230793;27;20048;-66
2021/08/31 09:36:15;;;;;;;3.97;1.67;;;29.40;99.90;;;;;;4224480;27;20043;-66
2021/08/31 09:38:20;;;;;;;6.60;1.92;;;29.50;99.90;;;;;;4225629;28;20133;-66
2021/08/31 09:40:27;;;;;;;3.28;1.67;;;29.50;99.90;;;;;;4222996;28;20051;-66
2021/08/31 09:42:34;;;;;;;2.97;1.60;;;29.60;99.90;;;;;;4228695;27;20050;-68
2021/08/31 09:44:39;;;;;;;6.32;2.20;;;29.80;99.90;;;;;;4229870;27;20109;-65
2021/08/31 09:46:55;;;;;;;9.13;4.43;;;29.80;99.90;;;;;;4229809;27;20035;-66
2021/08/31 09:48:59;;;;;;;16.15;7.93;;;29.70;99.90;;;;;;4228808;28;20107;-64
2021/08/31 09:51:22;;;;;;;18.35;11.70;;;29.50;99.90;;;;;;4205392;28;20105;-65
2021/08/31 09:53:44;;;;;;;13.73;8.40;;;29.50;99.90;;;;;;4226865;28;20063;-66
2021/08/31 09:56:11;;;;;;;12.48;7.53;;;29.60;99.90;;;;;;4225955;27;20464;-66
2021/08/31 09:58:37;;;;;;;9.77;5.38;;;29.50;99.90;;;;;;4226683;27;20054;-65
2021/08/31 10:01:02;;;;;;;6.15;4.40;;;29.50;99.90;;;;;;4226390;27;20048;-65
2021/08/31 10:03:27;;;;;;;7.10;4.05;;;29.40;99.90;;;;;;4227451;27;20051;-64
2021/08/31 10:05:53;;;;;;;5.47;4.00;;;29.40;99.90;;;;;;4226552;27;20047;-64
2021/08/31 10:08:18;;;;;;;5.15;2.90;;;29.40;99.90;;;;;;4229751;27;20407;-64
2021/08/31 10:10:46;;;;;;;6.72;3.05;;;29.40;99.90;;;;;;4229767;27;20482;-65
2021/08/31 10:13:18;;;;;;;3.03;2.22;;;29.40;99.90;;;;;;4222976;27;20071;-65
2021/08/31 10:15:51;;;;;;;3.15;2.00;;;29.40;99.90;;;;;;4233044;27;20046;-65
2021/08/31 10:18:17;;;;;;;3.10;2.10;;;29.30;99.90;;;;;;4229813;27;20062;-65
2021/08/31 10:20:47;;;;;;;4.07;2.20;;;29.40;99.90;;;;;;4234408;27;20051;-66
2021/08/31 10:23:13;;;;;;;3.15;1.92;;;29.40;99.90;;;;;;4234904;27;20145;-65
2021/08/31 10:25:38;;;;;;;5.28;2.30;;;29.40;99.90;;;;;;4228954;27;20429;-65
2021/08/31 10:27:51;;;;;;;3.42;1.95;;;29.40;99.90;;;;;;4231322;27;20461;-65
2021/08/31 10:30:33;;;;;;;1.85;1.65;;;29.40;99.90;;;;;;4236983;27;20122;-65
2021/08/31 10:32:38;;;;;;;2.80;1.95;;;29.40;99.90;;;;;;4235583;27;20646;-64
2021/08/31 10:34:44;;;;;;;3.13;2.15;;;29.30;99.90;;;;;;4234300;27;20049;-65
2021/08/31 10:37:03;;;;;;;4.55;2.70;;;29.30;99.90;;;;;;4231131;27;20043;-65
2021/08/31 10:39:08;;;;;;;6.40;3.30;;;29.30;99.90;;;;;;4234307;27;20039;-65
2021/08/31 10:41:36;;;;;;;10.27;6.97;;;29.40;99.90;;;;;;4234096;27;20398;-64
2021/08/31 10:43:54;;;;;;;13.13;10.15;;;29.30;99.90;;;;;;4231372;27;20104;-64
2021/08/31 10:45:59;;;;;;;9.02;7.00;;;29.30;99.90;;;;;;4235804;27;20052;-64
2021/08/31 10:48:36;;;;;;;13.20;9.85;;;29.40;99.90;;;;;;4233381;27;20088;-66
2021/08/31 10:50:42;;;;;;;9.98;6.75;;;29.40;99.90;;;;;;4233656;27;20048;-65
2021/08/31 10:52:52;;;;;;;6.22;3.63;;;29.20;99.90;;;;;;4200934;28;20052;-65
2021/08/31 10:54:57;;;;;;;5.63;3.33;;;29.20;99.90;;;;;;4233951;27;20446;-65
2021/08/31 10:57:08;;;;;;;5.35;3.17;;;29.10;99.90;;;;;;4232861;27;20085;-65
2021/08/31 10:59:33;;;;;;;5.88;3.00;;;29.00;99.90;;;;;;4200606;28;20040;-64
2021/08/31 11:01:40;;;;;;;4.00;2.83;;;29.00;99.90;;;;;;4234849;27;20054;-64